sensor_id;sensor_type;location;lat;lon;timestamp;pressure;altitude;pressure_sealevel;temperature;humidity
69035;BME280;56091;55.756;37.412;2023-06-26T00:02:18;98920.75;;;18.88;55.07
69035;BME280;56091;55.756;37.412;2023-06-26T00:07:22;98913.91;;;18.68;54.89
69035;BME280;56091;55.756;37.412;2023-06-26T00:12:23;98908.56;;;18.54;54.75
69035;BME280;56091;55.756;37.412;2023-06-26T00:17:24;98907.13;;;18.48;55.41
69035;BME280;56091;55.756;37.412;2023-06-26T00:22:25;98904.38;;;18.48;54.98
69035;BME280;56091;55.756;37.412;2023-06-26T00:27:26;98905.19;;;18.49;54.90
69035;BME280;56091;55.756;37.412;2023-06-26T00:32:27;98901.53;;;18.53;54.18
69035;BME280;56091;55.756;37.412;2023-06-26T00:37:28;98885.94;;;18.54;54.99
69035;BME280;56091;55.756;37.412;2023-06-26T00:42:29;98888.84;;;18.58;55.48
69035;BME280;56091;55.756;37.412;2023-06-26T00:47:30;98895.09;;;18.58;52.42
69035;BME280;56091;55.756;37.412;2023-06-26T00:52:32;98893.16;;;18.59;52.91
69035;BME280;56091;55.756;37.412;2023-06-26T00:57:34;98908.13;;;18.61;53.30
69035;BME280;56091;55.756;37.412;2023-06-26T01:02:35;98888.50;;;18.50;53.45
69035;BME280;56091;55.756;37.412;2023-06-26T01:07:36;98893.47;;;18.48;54.45
69035;BME280;56091;55.756;37.412;2023-06-26T01:12:38;98891.53;;;18.40;54.97
69035;BME280;56091;55.756;37.412;2023-06-26T01:17:39;98887.78;;;18.36;56.27
69035;BME280;56091;55.756;37.412;2023-06-26T01:23:15;98896.31;;;18.34;56.65
69035;BME280;56091;55.756;37.412;2023-06-26T01:28:19;98887.09;;;18.22;56.00
69035;BME280;56091;55.756;37.412;2023-06-26T01:33:20;98891.91;;;18.25;56.05
69035;BME280;56091;55.756;37.412;2023-06-26T01:38:25;98879.22;;;18.20;56.18
69035;BME280;56091;55.756;37.412;2023-06-26T01:48:59;98881.59;;;18.13;56.93
69035;BME280;56091;55.756;37.412;2023-06-26T01:54:03;98897.97;;;18.13;56.91
69035;BME280;56091;55.756;37.412;2023-06-26T01:59:07;98895.72;;;18.15;56.56
69035;BME280;56091;55.756;37.412;2023-06-26T02:04:09;98898.34;;;18.20;57.07
69035;BME280;56091;55.756;37.412;2023-06-26T02:09:10;98894.34;;;18.26;56.77
69035;BME280;56091;55.756;37.412;2023-06-26T02:14:11;98902.09;;;18.33;57.04
69035;BME280;56091;55.756;37.412;2023-06-26T02:19:13;98899.84;;;18.44;56.65
69035;BME280;56091;55.756;37.412;2023-06-26T02:24:42;98900.53;;;18.49;56.37
69035;BME280;56091;55.756;37.412;2023-06-26T02:29:46;98902.50;;;18.58;56.91
69035;BME280;56091;55.756;37.412;2023-06-26T02:34:47;98896.91;;;18.71;56.91
69035;BME280;56091;55.756;37.412;2023-06-26T02:39:48;98897.13;;;18.84;55.98
69035;BME280;56091;55.756;37.412;2023-06-26T02:44:52;98900.16;;;18.91;55.94
69035;BME280;56091;55.756;37.412;2023-06-26T02:49:53;98902.13;;;19.08;56.60
69035;BME280;56091;55.756;37.412;2023-06-26T02:54:53;98901.63;;;19.23;55.73
69035;BME280;56091;55.756;37.412;2023-06-26T02:59:54;98892.00;;;19.35;55.92
69035;BME280;56091;55.756;37.412;2023-06-26T03:04:55;98900.69;;;19.54;55.89
69035;BME280;56091;55.756;37.412;2023-06-26T03:09:58;98904.69;;;19.65;55.22
69035;BME280;56091;55.756;37.412;2023-06-26T03:15:00;98899.03;;;19.70;55.08
69035;BME280;56091;55.756;37.412;2023-06-26T03:20:01;98903.22;;;19.94;55.11
69035;BME280;56091;55.756;37.412;2023-06-26T03:25:12;98894.31;;;20.06;55.22
69035;BME280;56091;55.756;37.412;2023-06-26T03:30:16;98885.19;;;19.93;54.09
69035;BME280;56091;55.756;37.412;2023-06-26T03:35:19;98886.78;;;19.94;53.69
69035;BME280;56091;55.756;37.412;2023-06-26T03:40:23;98884.09;;;19.77;53.70
69035;BME280;56091;55.756;37.412;2023-06-26T03:45:24;98882.16;;;19.68;54.38
69035;BME280;56091;55.756;37.412;2023-06-26T03:50:25;98883.78;;;19.61;54.41
69035;BME280;56091;55.756;37.412;2023-06-26T03:55:26;98882.03;;;19.56;54.76
69035;BME280;56091;55.756;37.412;2023-06-26T04:00:26;98885.88;;;19.55;55.42
69035;BME280;56091;55.756;37.412;2023-06-26T04:05:28;98885.72;;;19.60;55.05
69035;BME280;56091;55.756;37.412;2023-06-26T04:10:29;98883.28;;;19.76;54.60
69035;BME280;56091;55.756;37.412;2023-06-26T04:15:35;98882.28;;;19.98;53.69
69035;BME280;56091;55.756;37.412;2023-06-26T04:20:39;98891.53;;;20.23;53.79
69035;BME280;56091;55.756;37.412;2023-06-26T04:25:41;98880.31;;;20.46;53.41
69035;BME280;56091;55.756;37.412;2023-06-26T04:30:42;98888.41;;;20.72;52.68
69035;BME280;56091;55.756;37.412;2023-06-26T04:35:42;98890.44;;;21.05;52.27
69035;BME280;56091;55.756;37.412;2023-06-26T04:40:49;98882.28;;;21.59;50.59
69035;BME280;56091;55.756;37.412;2023-06-26T04:45:49;98875.97;;;21.92;49.12
69035;BME280;56091;55.756;37.412;2023-06-26T04:50:50;98885.03;;;22.17;48.01
69035;BME280;56091;55.756;37.412;2023-06-26T04:55:54;98873.72;;;22.19;47.07
69035;BME280;56091;55.756;37.412;2023-06-26T05:00:55;98872.16;;;22.30;45.99
69035;BME280;56091;55.756;37.412;2023-06-26T05:05:58;98880.41;;;22.42;45.93
69035;BME280;56091;55.756;37.412;2023-06-26T05:10:59;98873.66;;;22.52;45.42
69035;BME280;56091;55.756;37.412;2023-06-26T05:16:00;98883.00;;;22.27;46.12
69035;BME280;56091;55.756;37.412;2023-06-26T05:21:01;98882.06;;;22.22;46.12
69035;BME280;56091;55.756;37.412;2023-06-26T05:26:04;98874.22;;;22.33;43.49
69035;BME280;56091;55.756;37.412;2023-06-26T05:31:05;98877.09;;;22.37;42.61
69035;BME280;56091;55.756;37.412;2023-06-26T05:36:07;98863.19;;;22.21;41.72
69035;BME280;56091;55.756;37.412;2023-06-26T05:41:10;98870.88;;;22.40;40.11
69035;BME280;56091;55.756;37.412;2023-06-26T05:46:10;98868.94;;;22.53;40.13
69035;BME280;56091;55.756;37.412;2023-06-26T05:51:12;98873.75;;;22.56;39.86
69035;BME280;56091;55.756;37.412;2023-06-26T05:56:13;98873.28;;;22.78;38.91
69035;BME280;56091;55.756;37.412;2023-06-26T06:01:14;98868.13;;;22.77;39.04
69035;BME280;56091;55.756;37.412;2023-06-26T06:06:15;98869.38;;;22.92;38.43
69035;BME280;56091;55.756;37.412;2023-06-26T06:11:16;98866.47;;;23.00;38.09
69035;BME280;56091;55.756;37.412;2023-06-26T06:16:17;98869.00;;;23.06;37.77
69035;BME280;56091;55.756;37.412;2023-06-26T06:21:18;98855.03;;;23.11;37.48
69035;BME280;56091;55.756;37.412;2023-06-26T06:26:20;98852.63;;;23.09;37.38
69035;BME280;56091;55.756;37.412;2023-06-26T06:31:21;98855.81;;;23.11;36.39
69035;BME280;56091;55.756;37.412;2023-06-26T06:36:21;98852.31;;;23.27;36.88
69035;BME280;56091;55.756;37.412;2023-06-26T06:41:22;98844.06;;;23.27;37.23
69035;BME280;56091;55.756;37.412;2023-06-26T06:46:26;98856.72;;;23.15;36.27
69035;BME280;56091;55.756;37.412;2023-06-26T06:51:29;98846.72;;;23.23;34.70
69035;BME280;56091;55.756;37.412;2023-06-26T06:56:29;98839.81;;;23.29;35.29
69035;BME280;56091;55.756;37.412;2023-06-26T07:01:30;98840.34;;;23.35;35.01
69035;BME280;56091;55.756;37.412;2023-06-26T07:06:31;98834.75;;;23.31;35.09
69035;BME280;56091;55.756;37.412;2023-06-26T07:11:32;98834.59;;;23.12;33.32
69035;BME280;56091;55.756;37.412;2023-06-26T07:16:32;98841.19;;;23.35;33.36
69035;BME280;56091;55.756;37.412;2023-06-26T07:21:33;98840.22;;;23.59;33.38
69035;BME280;56091;55.756;37.412;2023-06-26T07:26:34;98830.88;;;23.48;32.65
69035;BME280;56091;55.756;37.412;2023-06-26T07:31:35;98838.91;;;23.53;32.99
69035;BME280;56091;55.756;37.412;2023-06-26T07:36:36;98830.91;;;23.92;32.36
69035;BME280;56091;55.756;37.412;2023-06-26T07:41:36;98833.03;;;24.15;32.28
69035;BME280;56091;55.756;37.412;2023-06-26T07:46:37;98828.13;;;24.24;31.65
69035;BME280;56091;55.756;37.412;2023-06-26T07:51:38;98789.06;;;23.87;31.97
69035;BME280;56091;55.756;37.412;2023-06-26T07:56:55;98823.59;;;24.16;31.90
69035;BME280;56091;55.756;37.412;2023-06-26T08:01:57;98830.56;;;24.10;31.89
69035;BME280;56091;55.756;37.412;2023-06-26T08:06:58;98811.63;;;24.08;31.61
69035;BME280;56091;55.756;37.412;2023-06-26T08:12:00;98816.75;;;24.42;30.92
69035;BME280;56091;55.756;37.412;2023-06-26T08:17:01;98812.00;;;24.58;30.29
69035;BME280;56091;55.756;37.412;2023-06-26T08:22:02;98812.78;;;24.74;30.38
69035;BME280;56091;55.756;37.412;2023-06-26T08:27:03;98822.63;;;24.75;30.26
69035;BME280;56091;55.756;37.412;2023-06-26T08:32:06;98824.41;;;24.84;30.74
69035;BME280;56091;55.756;37.412;2023-06-26T08:37:07;98817.50;;;25.13;30.78
69035;BME280;56091;55.756;37.412;2023-06-26T08:42:11;98812.38;;;25.31;29.75
69035;BME280;56091;55.756;37.412;2023-06-26T08:47:12;98823.19;;;25.40;29.52
69035;BME280;56091;55.756;37.412;2023-06-26T08:52:19;98806.94;;;25.35;29.58
69035;BME280;56091;55.756;37.412;2023-06-26T08:57:23;98827.34;;;25.30;29.81
69035;BME280;56091;55.756;37.412;2023-06-26T09:02:25;98801.25;;;25.70;29.01
69035;BME280;56091;55.756;37.412;2023-06-26T09:07:26;98802.53;;;25.76;29.41
69035;BME280;56091;55.756;37.412;2023-06-26T09:12:31;98784.47;;;26.02;29.51
69035;BME280;56091;55.756;37.412;2023-06-26T09:17:38;98801.09;;;25.59;30.42
69035;BME280;56091;55.756;37.412;2023-06-26T09:22:42;98805.31;;;25.14;31.12
69035;BME280;56091;55.756;37.412;2023-06-26T09:27:44;98806.84;;;24.92;32.48
69035;BME280;56091;55.756;37.412;2023-06-26T09:32:45;98803.78;;;24.78;33.08
69035;BME280;56091;55.756;37.412;2023-06-26T09:37:46;98795.06;;;24.40;32.94
69035;BME280;56091;55.756;37.412;2023-06-26T09:42:47;98806.38;;;24.03;33.80
69035;BME280;56091;55.756;37.412;2023-06-26T09:47:47;98791.44;;;23.88;33.91
69035;BME280;56091;55.756;37.412;2023-06-26T09:52:51;98790.72;;;24.23;33.68
69035;BME280;56091;55.756;37.412;2023-06-26T09:57:54;98793.22;;;24.64;33.45
69035;BME280;56091;55.756;37.412;2023-06-26T10:02:57;98800.88;;;24.90;33.36
69035;BME280;56091;55.756;37.412;2023-06-26T10:07:58;98775.31;;;25.12;32.88
69035;BME280;56091;55.756;37.412;2023-06-26T10:13:06;98777.50;;;25.42;33.00
69035;BME280;56091;55.756;37.412;2023-06-26T10:18:09;98783.97;;;25.30;32.48
69035;BME280;56091;55.756;37.412;2023-06-26T10:23:11;98791.09;;;25.31;32.92
69035;BME280;56091;55.756;37.412;2023-06-26T10:28:14;98796.03;;;25.03;33.07
69035;BME280;56091;55.756;37.412;2023-06-26T10:33:17;98795.09;;;24.95;32.18
69035;BME280;56091;55.756;37.412;2023-06-26T10:38:18;98796.06;;;24.87;32.21
69035;BME280;56091;55.756;37.412;2023-06-26T10:43:19;98778.59;;;24.44;31.12
69035;BME280;56091;55.756;37.412;2023-06-26T10:48:20;98784.59;;;24.14;32.12
69035;BME280;56091;55.756;37.412;2023-06-26T10:53:23;98783.91;;;24.01;32.50
69035;BME280;56091;55.756;37.412;2023-06-26T11:03:50;98765.63;;;24.80;29.67
69035;BME280;56091;55.756;37.412;2023-06-26T11:09:10;98770.97;;;25.11;30.55
69035;BME280;56091;55.756;37.412;2023-06-26T11:14:15;98766.47;;;25.65;29.47
69035;BME280;56091;55.756;37.412;2023-06-26T11:19:18;98770.66;;;26.02;30.06
69035;BME280;56091;55.756;37.412;2023-06-26T11:24:23;98756.94;;;26.09;30.34
69035;BME280;56091;55.756;37.412;2023-06-26T11:29:24;98767.19;;;26.08;30.39
69035;BME280;56091;55.756;37.412;2023-06-26T11:34:29;98753.72;;;26.03;29.93
69035;BME280;56091;55.756;37.412;2023-06-26T11:39:30;98757.63;;;26.29;30.34
69035;BME280;56091;55.756;37.412;2023-06-26T11:44:32;98750.81;;;26.49;29.01
69035;BME280;56091;55.756;37.412;2023-06-26T11:49:33;98743.47;;;26.61;28.15
69035;BME280;56091;55.756;37.412;2023-06-26T11:54:33;98740.97;;;26.52;28.97
69035;BME280;56091;55.756;37.412;2023-06-26T11:59:36;98733.72;;;26.71;27.60
69035;BME280;56091;55.756;37.412;2023-06-26T12:04:38;98714.91;;;26.53;27.39
69035;BME280;56091;55.756;37.412;2023-06-26T12:09:42;98709.16;;;26.99;26.95
69035;BME280;56091;55.756;37.412;2023-06-26T12:14:44;98718.63;;;27.77;27.02
69035;BME280;56091;55.756;37.412;2023-06-26T12:19:46;98709.84;;;29.11;26.43
69035;BME280;56091;55.756;37.412;2023-06-26T12:24:51;98683.59;;;30.52;23.25
69035;BME280;56091;55.756;37.412;2023-06-26T12:29:53;98700.69;;;32.29;20.56
69035;BME280;56091;55.756;37.412;2023-06-26T12:34:56;98669.66;;;32.88;19.85
69035;BME280;56091;55.756;37.412;2023-06-26T12:40:00;98669.06;;;29.44;23.86
69035;BME280;56091;55.756;37.412;2023-06-26T12:45:11;98693.16;;;27.57;26.88
69035;BME280;56091;55.756;37.412;2023-06-26T12:50:12;98693.81;;;26.68;27.50
69035;BME280;56091;55.756;37.412;2023-06-26T12:55:13;98690.28;;;25.87;27.83
69035;BME280;56091;55.756;37.412;2023-06-26T13:00:14;98680.16;;;25.45;27.87
69035;BME280;56091;55.756;37.412;2023-06-26T13:05:15;98689.72;;;25.51;27.97
69035;BME280;56091;55.756;37.412;2023-06-26T13:10:16;98685.28;;;25.70;27.92
69035;BME280;56091;55.756;37.412;2023-06-26T13:15:17;98674.19;;;26.20;27.42
69035;BME280;56091;55.756;37.412;2023-06-26T13:20:18;98675.13;;;26.01;28.20
69035;BME280;56091;55.756;37.412;2023-06-26T13:25:19;98665.94;;;25.93;28.22
69035;BME280;56091;55.756;37.412;2023-06-26T13:30:21;98667.69;;;26.05;28.01
69035;BME280;56091;55.756;37.412;2023-06-26T13:35:22;98634.00;;;26.90;27.27
69035;BME280;56091;55.756;37.412;2023-06-26T13:40:23;98648.72;;;33.55;19.26
69035;BME280;56091;55.756;37.412;2023-06-26T13:45:25;98649.44;;;31.74;21.20
69035;BME280;56091;55.756;37.412;2023-06-26T13:50:26;98649.25;;;30.84;22.31
69035;BME280;56091;55.756;37.412;2023-06-26T13:55:27;98650.41;;;29.19;23.70
69035;BME280;56091;55.756;37.412;2023-06-26T14:00:28;98647.38;;;28.36;25.37
69035;BME280;56091;55.756;37.412;2023-06-26T14:05:34;98651.56;;;28.05;26.24
69035;BME280;56091;55.756;37.412;2023-06-26T14:10:35;98644.13;;;32.90;20.58
69035;BME280;56091;55.756;37.412;2023-06-26T14:15:37;98629.31;;;35.41;17.71
69035;BME280;56091;55.756;37.412;2023-06-26T14:20:40;98616.50;;;37.24;16.53
69035;BME280;56091;55.756;37.412;2023-06-26T14:25:41;98592.19;;;38.22;14.29
69035;BME280;56091;55.756;37.412;2023-06-26T14:30:45;98615.72;;;38.38;14.08
69035;BME280;56091;55.756;37.412;2023-06-26T14:35:45;98615.69;;;38.91;13.83
69035;BME280;56091;55.756;37.412;2023-06-26T14:40:46;98609.56;;;38.74;12.54
69035;BME280;56091;55.756;37.412;2023-06-26T14:45:47;98607.59;;;37.96;13.03
69035;BME280;56091;55.756;37.412;2023-06-26T14:50:48;98591.25;;;39.29;12.80
69035;BME280;56091;55.756;37.412;2023-06-26T14:55:48;98597.94;;;39.90;11.27
69035;BME280;56091;55.756;37.412;2023-06-26T15:00:49;98589.72;;;40.20;11.12
69035;BME280;56091;55.756;37.412;2023-06-26T15:05:50;98579.84;;;40.15;11.36
69035;BME280;56091;55.756;37.412;2023-06-26T15:10:51;98579.56;;;39.49;11.91
69035;BME280;56091;55.756;37.412;2023-06-26T15:15:51;98587.69;;;39.65;12.10
69035;BME280;56091;55.756;37.412;2023-06-26T15:20:52;98566.81;;;39.35;12.57
69035;BME280;56091;55.756;37.412;2023-06-26T15:25:53;98579.41;;;36.78;14.41
69035;BME280;56091;55.756;37.412;2023-06-26T15:30:54;98566.00;;;36.44;14.63
69035;BME280;56091;55.756;37.412;2023-06-26T15:35:54;98570.91;;;34.17;16.32
69035;BME280;56091;55.756;37.412;2023-06-26T15:40:55;98563.88;;;32.36;17.98
69035;BME280;56091;55.756;37.412;2023-06-26T15:45:56;98571.72;;;30.05;21.28
69035;BME280;56091;55.756;37.412;2023-06-26T15:50:57;98566.66;;;28.63;23.50
69035;BME280;56091;55.756;37.412;2023-06-26T15:55:58;98582.94;;;27.88;24.88
69035;BME280;56091;55.756;37.412;2023-06-26T16:00:59;98584.34;;;27.08;26.62
69035;BME280;56091;55.756;37.412;2023-06-26T16:06:00;98591.69;;;26.18;28.05
69035;BME280;56091;55.756;37.412;2023-06-26T16:11:03;98593.44;;;25.73;29.46
69035;BME280;56091;55.756;37.412;2023-06-26T16:16:05;98602.16;;;25.25;30.13
69035;BME280;56091;55.756;37.412;2023-06-26T16:21:10;98596.94;;;24.97;30.67
69035;BME280;56091;55.756;37.412;2023-06-26T16:26:11;98591.47;;;24.78;30.25
69035;BME280;56091;55.756;37.412;2023-06-26T16:31:12;98593.25;;;24.66;30.38
69035;BME280;56091;55.756;37.412;2023-06-26T16:36:13;98598.19;;;24.57;30.44
69035;BME280;56091;55.756;37.412;2023-06-26T16:41:16;98597.88;;;24.43;29.05
69035;BME280;56091;55.756;37.412;2023-06-26T16:46:17;98594.97;;;24.35;29.75
69035;BME280;56091;55.756;37.412;2023-06-26T16:51:18;98586.00;;;24.19;29.03
69035;BME280;56091;55.756;37.412;2023-06-26T16:56:19;98589.22;;;24.05;29.74
69035;BME280;56091;55.756;37.412;2023-06-26T17:01:20;98581.63;;;23.79;29.68
69035;BME280;56091;55.756;37.412;2023-06-26T17:06:21;98605.22;;;23.80;29.47
69035;BME280;56091;55.756;37.412;2023-06-26T17:11:22;98621.41;;;23.66;29.75
69035;BME280;56091;55.756;37.412;2023-06-26T17:16:25;98621.13;;;23.55;29.94
69035;BME280;56091;55.756;37.412;2023-06-26T17:21:26;98623.53;;;23.56;29.90
69035;BME280;56091;55.756;37.412;2023-06-26T17:26:27;98632.31;;;23.46;29.71
69035;BME280;56091;55.756;37.412;2023-06-26T17:31:29;98613.53;;;23.32;31.32
69035;BME280;56091;55.756;37.412;2023-06-26T17:36:31;98619.66;;;23.42;31.53
69035;BME280;56091;55.756;37.412;2023-06-26T17:41:32;98622.31;;;23.38;32.66
69035;BME280;56091;55.756;37.412;2023-06-26T17:46:36;98631.16;;;23.31;33.34
69035;BME280;56091;55.756;37.412;2023-06-26T17:51:36;98622.47;;;23.29;33.17
69035;BME280;56091;55.756;37.412;2023-06-26T17:56:37;98632.78;;;23.16;33.22
69035;BME280;56091;55.756;37.412;2023-06-26T18:01:42;98626.88;;;23.02;35.12
69035;BME280;56091;55.756;37.412;2023-06-26T18:06:43;98639.22;;;22.64;36.87
69035;BME280;56091;55.756;37.412;2023-06-26T18:11:45;98644.16;;;22.30;37.92
69035;BME280;56091;55.756;37.412;2023-06-26T18:16:46;98624.66;;;21.95;38.76
69035;BME280;56091;55.756;37.412;2023-06-26T18:21:47;98636.00;;;21.81;39.44
69035;BME280;56091;55.756;37.412;2023-06-26T18:26:48;98633.41;;;21.48;40.23
69035;BME280;56091;55.756;37.412;2023-06-26T18:31:50;98641.13;;;21.21;41.94
69035;BME280;56091;55.756;37.412;2023-06-26T18:36:52;98637.06;;;20.81;43.39
69035;BME280;56091;55.756;37.412;2023-06-26T18:41:53;98621.38;;;20.48;43.47
69035;BME280;56091;55.756;37.412;2023-06-26T18:46:54;98630.53;;;20.53;43.74
69035;BME280;56091;55.756;37.412;2023-06-26T18:51:56;98634.34;;;20.60;43.16
69035;BME280;56091;55.756;37.412;2023-06-26T18:56:58;98627.97;;;20.69;42.64
69035;BME280;56091;55.756;37.412;2023-06-26T19:02:01;98626.28;;;20.76;42.00
69035;BME280;56091;55.756;37.412;2023-06-26T19:07:02;98629.75;;;20.85;42.14
69035;BME280;56091;55.756;37.412;2023-06-26T19:12:04;98634.31;;;20.94;41.27
69035;BME280;56091;55.756;37.412;2023-06-26T19:17:05;98628.63;;;20.99;41.30
69035;BME280;56091;55.756;37.412;2023-06-26T19:22:06;98626.03;;;21.02;40.89
69035;BME280;56091;55.756;37.412;2023-06-26T19:27:06;98623.03;;;20.95;41.60
69035;BME280;56091;55.756;37.412;2023-06-26T19:32:07;98620.75;;;20.97;41.70
69035;BME280;56091;55.756;37.412;2023-06-26T19:37:11;98620.88;;;21.01;42.18
69035;BME280;56091;55.756;37.412;2023-06-26T19:42:11;98619.50;;;21.07;42.31
69035;BME280;56091;55.756;37.412;2023-06-26T19:47:12;98607.63;;;21.03;42.51
69035;BME280;56091;55.756;37.412;2023-06-26T19:52:13;98600.97;;;20.92;43.07
69035;BME280;56091;55.756;37.412;2023-06-26T19:57:15;98623.84;;;21.08;43.04
69035;BME280;56091;55.756;37.412;2023-06-26T20:02:16;98605.34;;;21.05;42.96
69035;BME280;56091;55.756;37.412;2023-06-26T20:07:17;98613.47;;;21.14;43.09
69035;BME280;56091;55.756;37.412;2023-06-26T20:12:18;98614.38;;;21.18;43.39
69035;BME280;56091;55.756;37.412;2023-06-26T20:17:19;98614.72;;;21.16;43.10
69035;BME280;56091;55.756;37.412;2023-06-26T20:22:20;98606.16;;;21.18;43.55
69035;BME280;56091;55.756;37.412;2023-06-26T20:27:21;98601.94;;;21.08;43.94
69035;BME280;56091;55.756;37.412;2023-06-26T20:32:21;98614.81;;;21.08;44.02
69035;BME280;56091;55.756;37.412;2023-06-26T20:37:22;98610.38;;;21.03;45.09
69035;BME280;56091;55.756;37.412;2023-06-26T20:42:23;98599.16;;;20.96;45.16
69035;BME280;56091;55.756;37.412;2023-06-26T20:47:24;98592.63;;;20.76;45.52
69035;BME280;56091;55.756;37.412;2023-06-26T20:52:34;98608.00;;;20.68;45.17
69035;BME280;56091;55.756;37.412;2023-06-26T20:57:35;98599.44;;;20.48;46.13
69035;BME280;56091;55.756;37.412;2023-06-26T21:02:35;98609.34;;;20.41;46.69
69035;BME280;56091;55.756;37.412;2023-06-26T21:07:36;98610.91;;;20.29;47.32
69035;BME280;56091;55.756;37.412;2023-06-26T21:12:37;98609.78;;;20.09;46.40
69035;BME280;56091;55.756;37.412;2023-06-26T21:17:38;98593.09;;;20.02;46.21
69035;BME280;56091;55.756;37.412;2023-06-26T21:22:39;98606.38;;;20.13;46.76
69035;BME280;56091;55.756;37.412;2023-06-26T21:27:40;98601.38;;;20.15;45.96
69035;BME280;56091;55.756;37.412;2023-06-26T21:32:41;98605.19;;;20.22;45.73
69035;BME280;56091;55.756;37.412;2023-06-26T21:37:42;98590.69;;;20.22;45.86
69035;BME280;56091;55.756;37.412;2023-06-26T21:42:43;98584.53;;;20.25;46.00
69035;BME280;56091;55.756;37.412;2023-06-26T21:47:44;98586.25;;;20.29;44.90
69035;BME280;56091;55.756;37.412;2023-06-26T21:52:44;98589.34;;;20.28;45.07
69035;BME280;56091;55.756;37.412;2023-06-26T21:57:45;98586.13;;;20.26;44.49
69035;BME280;56091;55.756;37.412;2023-06-26T22:02:46;98590.00;;;20.25;44.21
69035;BME280;56091;55.756;37.412;2023-06-26T22:07:47;98563.47;;;20.04;44.05
69035;BME280;56091;55.756;37.412;2023-06-26T22:12:47;98583.28;;;20.01;44.47
69035;BME280;56091;55.756;37.412;2023-06-26T22:17:50;98577.22;;;19.96;44.78
69035;BME280;56091;55.756;37.412;2023-06-26T22:22:51;98577.59;;;19.85;44.49
69035;BME280;56091;55.756;37.412;2023-06-26T22:27:53;98566.06;;;19.80;44.13
69035;BME280;56091;55.756;37.412;2023-06-26T22:32:54;98566.25;;;19.75;44.86
69035;BME280;56091;55.756;37.412;2023-06-26T22:37:55;98573.50;;;19.70;44.65
69035;BME280;56091;55.756;37.412;2023-06-26T22:42:55;98546.72;;;19.55;45.13
69035;BME280;56091;55.756;37.412;2023-06-26T22:47:56;98574.81;;;19.64;45.09
69035;BME280;56091;55.756;37.412;2023-06-26T22:52:57;98570.47;;;19.63;45.44
69035;BME280;56091;55.756;37.412;2023-06-26T22:58:00;98549.88;;;19.45;45.83
69035;BME280;56091;55.756;37.412;2023-06-26T23:03:00;98557.34;;;19.57;45.50
69035;BME280;56091;55.756;37.412;2023-06-26T23:08:01;98566.56;;;19.52;45.86
69035;BME280;56091;55.756;37.412;2023-06-26T23:13:02;98565.94;;;19.46;45.75
69035;BME280;56091;55.756;37.412;2023-06-26T23:18:03;98571.28;;;19.43;45.88
69035;BME280;56091;55.756;37.412;2023-06-26T23:23:04;98572.38;;;19.42;46.31
69035;BME280;56091;55.756;37.412;2023-06-26T23:28:05;98582.72;;;19.36;46.95
69035;BME280;56091;55.756;37.412;2023-06-26T23:33:06;98571.34;;;19.25;47.20
69035;BME280;56091;55.756;37.412;2023-06-26T23:38:08;98562.59;;;19.11;47.88
69035;BME280;56091;55.756;37.412;2023-06-26T23:43:09;98576.91;;;19.08;48.03
69035;BME280;56091;55.756;37.412;2023-06-26T23:48:10;98581.28;;;19.00;48.78
69035;BME280;56091;55.756;37.412;2023-06-26T23:53:10;98576.16;;;18.90;48.76
69035;BME280;56091;55.756;37.412;2023-06-26T23:58:11;98488.75;;;18.34;49.26
